sensor_id;sensor_type;location;lat;lon;timestamp;P1;durP1;ratioP1;P2;durP2;ratioP2
86282;SDS011;76946;53.906;27.480;2024-03-29T00:00:06;11.1;;;5.1;;
86282;SDS011;76946;53.906;27.480;2024-03-29T00:01:05;10.6;;;5.1;;
86282;SDS011;76946;53.906;27.480;2024-03-29T00:02:05;10.4;;;4.9;;
86282;SDS011;76946;53.906;27.480;2024-03-29T00:03:06;9.9;;;4.8;;
86282;SDS011;76946;53.906;27.480;2024-03-29T00:04:06;10.6;;;4.9;;
86282;SDS011;76946;53.906;27.480;2024-03-29T00:05:07;10.1;;;4.8;;
86282;SDS011;76946;53.906;27.480;2024-03-29T00:06:07;9.6;;;4.8;;
86282;SDS011;76946;53.906;27.480;2024-03-29T00:07:07;9.2;;;4.6;;
86282;SDS011;76946;53.906;27.480;2024-03-29T00:08:08;8.7;;;4.5;;
86282;SDS011;76946;53.906;27.480;2024-03-29T00:09:08;8.3;;;4.6;;
86282;SDS011;76946;53.906;27.480;2024-03-29T00:10:09;8.9;;;4.4;;
86282;SDS011;76946;53.906;27.480;2024-03-29T00:11:09;8.5;;;4.4;;
86282;SDS011;76946;53.906;27.480;2024-03-29T00:12:09;8.9;;;4.4;;
86282;SDS011;76946;53.906;27.480;2024-03-29T00:13:09;9.2;;;4.3;;
86282;SDS011;76946;53.906;27.480;2024-03-29T00:14:10;9.8;;;4.6;;
86282;SDS011;76946;53.906;27.480;2024-03-29T00:15:10;9.3;;;4.4;;
86282;SDS011;76946;53.906;27.480;2024-03-29T00:16:11;8.8;;;4.7;;
86282;SDS011;76946;53.906;27.480;2024-03-29T00:17:11;8.4;;;4.6;;
86282;SDS011;76946;53.906;27.480;2024-03-29T00:18:11;8.5;;;4.5;;
86282;SDS011;76946;53.906;27.480;2024-03-29T00:19:11;8.1;;;4.3;;
86282;SDS011;76946;53.906;27.480;2024-03-29T00:20:12;7.9;;;4.1;;
86282;SDS011;76946;53.906;27.480;2024-03-29T00:22:13;7.9;;;4.2;;
86282;SDS011;76946;53.906;27.480;2024-03-29T00:23:13;7.5;;;4;;
86282;SDS011;76946;53.906;27.480;2024-03-29T00:24:13;8.4;;;4.3;;
86282;SDS011;76946;53.906;27.480;2024-03-29T00:25:14;8.8;;;4.3;;
86282;SDS011;76946;53.906;27.480;2024-03-29T00:26:14;8.8;;;4.4;;
86282;SDS011;76946;53.906;27.480;2024-03-29T00:27:15;9.8;;;4.4;;
86282;SDS011;76946;53.906;27.480;2024-03-29T00:28:15;10.4;;;4.4;;
86282;SDS011;76946;53.906;27.480;2024-03-29T00:29:15;9.9;;;4.2;;
86282;SDS011;76946;53.906;27.480;2024-03-29T00:30:15;9.4;;;4;;
86282;SDS011;76946;53.906;27.480;2024-03-29T00:31:16;10.2;;;4.1;;
86282;SDS011;76946;53.906;27.480;2024-03-29T00:32:16;9.9;;;4.1;;
86282;SDS011;76946;53.906;27.480;2024-03-29T00:33:16;9.5;;;4.1;;
86282;SDS011;76946;53.906;27.480;2024-03-29T00:34:17;9;;;3.9;;
86282;SDS011;76946;53.906;27.480;2024-03-29T00:35:17;9.6;;;4;;
86282;SDS011;76946;53.906;27.480;2024-03-29T00:36:18;9.4;;;4;;
86282;SDS011;76946;53.906;27.480;2024-03-29T00:37:18;9;;;3.9;;
86282;SDS011;76946;53.906;27.480;2024-03-29T00:38:18;8.6;;;3.7;;
86282;SDS011;76946;53.906;27.480;2024-03-29T00:39:19;9.1;;;4.1;;
86282;SDS011;76946;53.906;27.480;2024-03-29T00:40:19;8.8;;;3.9;;
86282;SDS011;76946;53.906;27.480;2024-03-29T00:41:19;8.4;;;3.7;;
86282;SDS011;76946;53.906;27.480;2024-03-29T00:42:20;8.4;;;3.9;;
86282;SDS011;76946;53.906;27.480;2024-03-29T00:43:20;8.5;;;4;;
86282;SDS011;76946;53.906;27.480;2024-03-29T00:44:20;8.1;;;4.2;;
86282;SDS011;76946;53.906;27.480;2024-03-29T00:45:21;8.1;;;4.1;;
86282;SDS011;76946;53.906;27.480;2024-03-29T00:46:21;8;;;4;;
86282;SDS011;76946;53.906;27.480;2024-03-29T00:47:22;8.9;;;4.1;;
86282;SDS011;76946;53.906;27.480;2024-03-29T00:48:22;8.8;;;4.2;;
86282;SDS011;76946;53.906;27.480;2024-03-29T00:49:22;9.2;;;4.2;;
86282;SDS011;76946;53.906;27.480;2024-03-29T00:50:23;10.4;;;4;;
86282;SDS011;76946;53.906;27.480;2024-03-29T00:51:23;10;;;3.9;;
86282;SDS011;76946;53.906;27.480;2024-03-29T00:52:23;10.3;;;4.1;;
86282;SDS011;76946;53.906;27.480;2024-03-29T00:53:24;9.9;;;4.3;;
86282;SDS011;76946;53.906;27.480;2024-03-29T00:54:24;9.4;;;4.4;;
86282;SDS011;76946;53.906;27.480;2024-03-29T00:55:24;8.9;;;4.2;;
86282;SDS011;76946;53.906;27.480;2024-03-29T00:56:25;8.8;;;4.2;;
86282;SDS011;76946;53.906;27.480;2024-03-29T00:57:25;9.8;;;4.2;;
86282;SDS011;76946;53.906;27.480;2024-03-29T00:58:26;9.6;;;4.3;;
86282;SDS011;76946;53.906;27.480;2024-03-29T00:59:26;9.3;;;4.3;;
86282;SDS011;76946;53.906;27.480;2024-03-29T01:00:26;8.8;;;4.2;;
86282;SDS011;76946;53.906;27.480;2024-03-29T01:01:27;8.4;;;4;;
86282;SDS011;76946;53.906;27.480;2024-03-29T01:02:27;8.9;;;4.1;;
86282;SDS011;76946;53.906;27.480;2024-03-29T01:03:27;9.3;;;4.2;;
86282;SDS011;76946;53.906;27.480;2024-03-29T01:04:28;9.4;;;4.3;;
86282;SDS011;76946;53.906;27.480;2024-03-29T01:05:28;8.9;;;4.3;;
86282;SDS011;76946;53.906;27.480;2024-03-29T01:06:28;8.5;;;4.1;;
86282;SDS011;76946;53.906;27.480;2024-03-29T01:07:29;9.5;;;4.4;;
86282;SDS011;76946;53.906;27.480;2024-03-29T01:08:29;9.8;;;4.6;;
86282;SDS011;76946;53.906;27.480;2024-03-29T01:09:29;9.6;;;4.5;;
86282;SDS011;76946;53.906;27.480;2024-03-29T01:10:30;9.1;;;4.6;;
86282;SDS011;76946;53.906;27.480;2024-03-29T01:11:30;9.3;;;4.5;;
86282;SDS011;76946;53.906;27.480;2024-03-29T01:12:31;9.7;;;4.5;;
86282;SDS011;76946;53.906;27.480;2024-03-29T01:13:31;9.3;;;4.5;;
86282;SDS011;76946;53.906;27.480;2024-03-29T01:14:31;9.9;;;4.5;;
86282;SDS011;76946;53.906;27.480;2024-03-29T01:15:32;9.4;;;4.4;;
86282;SDS011;76946;53.906;27.480;2024-03-29T01:16:32;9.4;;;4.6;;
86282;SDS011;76946;53.906;27.480;2024-03-29T01:17:32;8.9;;;4.6;;
86282;SDS011;76946;53.906;27.480;2024-03-29T01:18:33;8.5;;;4.4;;
86282;SDS011;76946;53.906;27.480;2024-03-29T01:19:33;9.3;;;4.4;;
86282;SDS011;76946;53.906;27.480;2024-03-29T01:20:33;9.1;;;4.5;;
86282;SDS011;76946;53.906;27.480;2024-03-29T01:21:34;8.6;;;4.5;;
86282;SDS011;76946;53.906;27.480;2024-03-29T01:22:34;9.9;;;4.6;;
86282;SDS011;76946;53.906;27.480;2024-03-29T01:23:34;9.4;;;4.7;;
86282;SDS011;76946;53.906;27.480;2024-03-29T01:24:35;8.9;;;4.7;;
86282;SDS011;76946;53.906;27.480;2024-03-29T01:25:35;9.1;;;4.6;;
86282;SDS011;76946;53.906;27.480;2024-03-29T01:26:35;8.9;;;4.8;;
86282;SDS011;76946;53.906;27.480;2024-03-29T01:27:36;9.8;;;4.8;;
86282;SDS011;76946;53.906;27.480;2024-03-29T01:28:36;9.7;;;4.8;;
86282;SDS011;76946;53.906;27.480;2024-03-29T01:29:37;9.2;;;4.7;;
86282;SDS011;76946;53.906;27.480;2024-03-29T01:30:37;10;;;4.9;;
86282;SDS011;76946;53.906;27.480;2024-03-29T01:31:37;9.5;;;4.7;;
86282;SDS011;76946;53.906;27.480;2024-03-29T01:32:38;9.1;;;4.7;;
86282;SDS011;76946;53.906;27.480;2024-03-29T01:33:38;9.6;;;4.8;;
86282;SDS011;76946;53.906;27.480;2024-03-29T01:34:38;10.1;;;4.8;;
86282;SDS011;76946;53.906;27.480;2024-03-29T01:35:39;9.7;;;4.7;;
86282;SDS011;76946;53.906;27.480;2024-03-29T01:36:39;10.7;;;5;;
86282;SDS011;76946;53.906;27.480;2024-03-29T01:37:40;10.2;;;5;;
86282;SDS011;76946;53.906;27.480;2024-03-29T01:38:40;9.7;;;4.8;;
86282;SDS011;76946;53.906;27.480;2024-03-29T01:39:40;9.2;;;4.7;;
86282;SDS011;76946;53.906;27.480;2024-03-29T01:40:41;9.6;;;4.9;;
86282;SDS011;76946;53.906;27.480;2024-03-29T01:41:41;9.6;;;5;;
86282;SDS011;76946;53.906;27.480;2024-03-29T01:42:41;9.1;;;4.9;;
86282;SDS011;76946;53.906;27.480;2024-03-29T01:43:42;8.8;;;4.9;;
86282;SDS011;76946;53.906;27.480;2024-03-29T01:44:42;9.2;;;4.9;;
86282;SDS011;76946;53.906;27.480;2024-03-29T01:45:42;8.8;;;4.8;;
86282;SDS011;76946;53.906;27.480;2024-03-29T01:46:43;10;;;4.9;;
86282;SDS011;76946;53.906;27.480;2024-03-29T01:47:43;10.8;;;5;;
86282;SDS011;76946;53.906;27.480;2024-03-29T01:48:43;10.3;;;4.9;;
86282;SDS011;76946;53.906;27.480;2024-03-29T01:49:44;9.9;;;4.8;;
86282;SDS011;76946;53.906;27.480;2024-03-29T01:50:44;9.4;;;4.7;;
86282;SDS011;76946;53.906;27.480;2024-03-29T01:51:45;9.5;;;4.8;;
86282;SDS011;76946;53.906;27.480;2024-03-29T01:53:45;10.1;;;5;;
86282;SDS011;76946;53.906;27.480;2024-03-29T01:54:45;11.1;;;5;;
86282;SDS011;76946;53.906;27.480;2024-03-29T01:55:46;10.5;;;4.9;;
86282;SDS011;76946;53.906;27.480;2024-03-29T01:56:46;10;;;4.8;;
86282;SDS011;76946;53.906;27.480;2024-03-29T01:57:47;9.5;;;4.6;;
86282;SDS011;76946;53.906;27.480;2024-03-29T01:58:47;9.9;;;4.9;;
86282;SDS011;76946;53.906;27.480;2024-03-29T01:59:47;9.4;;;4.8;;
86282;SDS011;76946;53.906;27.480;2024-03-29T02:00:49;10;;;4.7;;
86282;SDS011;76946;53.906;27.480;2024-03-29T02:01:48;9.5;;;5.1;;
86282;SDS011;76946;53.906;27.480;2024-03-29T02:02:48;9.2;;;5.3;;
86282;SDS011;76946;53.906;27.480;2024-03-29T02:03:49;9.4;;;5.4;;
86282;SDS011;76946;53.906;27.480;2024-03-29T02:04:49;9.7;;;5.3;;
86282;SDS011;76946;53.906;27.480;2024-03-29T02:05:50;10.1;;;5.2;;
86282;SDS011;76946;53.906;27.480;2024-03-29T02:06:50;11.1;;;5.1;;
86282;SDS011;76946;53.906;27.480;2024-03-29T02:07:50;10.5;;;5.2;;
86282;SDS011;76946;53.906;27.480;2024-03-29T02:08:51;10;;;5.1;;
86282;SDS011;76946;53.906;27.480;2024-03-29T02:09:51;10.5;;;5.3;;
86282;SDS011;76946;53.906;27.480;2024-03-29T02:10:51;10.5;;;5.4;;
86282;SDS011;76946;53.906;27.480;2024-03-29T02:11:52;10.2;;;5.7;;
86282;SDS011;76946;53.906;27.480;2024-03-29T02:12:52;10.6;;;5.6;;
86282;SDS011;76946;53.906;27.480;2024-03-29T02:13:52;10.4;;;5.3;;
86282;SDS011;76946;53.906;27.480;2024-03-29T02:14:53;10.4;;;5.5;;
86282;SDS011;76946;53.906;27.480;2024-03-29T02:15:53;10.1;;;5.6;;
86282;SDS011;76946;53.906;27.480;2024-03-29T02:16:54;10.1;;;5.9;;
86282;SDS011;76946;53.906;27.480;2024-03-29T02:17:54;10.6;;;5.9;;
86282;SDS011;76946;53.906;27.480;2024-03-29T02:18:54;10.1;;;5.6;;
86282;SDS011;76946;53.906;27.480;2024-03-29T02:19:54;10;;;5.3;;
86282;SDS011;76946;53.906;27.480;2024-03-29T02:20:55;10.3;;;5.4;;
86282;SDS011;76946;53.906;27.480;2024-03-29T02:21:55;9.8;;;5.5;;
86282;SDS011;76946;53.906;27.480;2024-03-29T02:22:57;10.6;;;5.5;;
86282;SDS011;76946;53.906;27.480;2024-03-29T02:23:58;10.2;;;5.4;;
86282;SDS011;76946;53.906;27.480;2024-03-29T02:24:56;11.4;;;5.5;;
86282;SDS011;76946;53.906;27.480;2024-03-29T02:25:57;11.5;;;5.8;;
86282;SDS011;76946;53.906;27.480;2024-03-29T02:26:57;10.9;;;5.8;;
86282;SDS011;76946;53.906;27.480;2024-03-29T02:27:58;11.3;;;5.7;;
86282;SDS011;76946;53.906;27.480;2024-03-29T02:28:58;11.2;;;6;;
86282;SDS011;76946;53.906;27.480;2024-03-29T02:29:58;10.6;;;5.8;;
86282;SDS011;76946;53.906;27.480;2024-03-29T02:30:58;10.3;;;5.9;;
86282;SDS011;76946;53.906;27.480;2024-03-29T02:31:59;10.5;;;5.8;;
86282;SDS011;76946;53.906;27.480;2024-03-29T02:32:59;10.5;;;6.1;;
86282;SDS011;76946;53.906;27.480;2024-03-29T02:33:59;11.6;;;5.8;;
86282;SDS011;76946;53.906;27.480;2024-03-29T02:35:00;11.9;;;6;;
86282;SDS011;76946;53.906;27.480;2024-03-29T02:36:00;11.3;;;5.7;;
86282;SDS011;76946;53.906;27.480;2024-03-29T02:37:01;10.7;;;5.6;;
86282;SDS011;76946;53.906;27.480;2024-03-29T02:38:01;10.4;;;5.8;;
86282;SDS011;76946;53.906;27.480;2024-03-29T02:39:01;10.1;;;5.6;;
86282;SDS011;76946;53.906;27.480;2024-03-29T02:40:02;11;;;5.7;;
86282;SDS011;76946;53.906;27.480;2024-03-29T02:41:02;10.5;;;5.4;;
86282;SDS011;76946;53.906;27.480;2024-03-29T02:42:02;10;;;5.5;;
86282;SDS011;76946;53.906;27.480;2024-03-29T02:43:03;9.5;;;5.6;;
86282;SDS011;76946;53.906;27.480;2024-03-29T02:44:03;9.2;;;5.7;;
86282;SDS011;76946;53.906;27.480;2024-03-29T02:45:03;9;;;5.4;;
86282;SDS011;76946;53.906;27.480;2024-03-29T02:46:04;10.1;;;5.6;;
86282;SDS011;76946;53.906;27.480;2024-03-29T02:47:04;10.6;;;5.7;;
86282;SDS011;76946;53.906;27.480;2024-03-29T02:48:05;11.3;;;6.1;;
86282;SDS011;76946;53.906;27.480;2024-03-29T02:49:05;10.7;;;5.9;;
86282;SDS011;76946;53.906;27.480;2024-03-29T02:50:05;10.6;;;5.8;;
86282;SDS011;76946;53.906;27.480;2024-03-29T02:51:05;10.1;;;5.9;;
86282;SDS011;76946;53.906;27.480;2024-03-29T02:52:06;10.9;;;5.7;;
86282;SDS011;76946;53.906;27.480;2024-03-29T02:53:06;10.4;;;5.8;;
86282;SDS011;76946;53.906;27.480;2024-03-29T02:54:07;10.5;;;5.7;;
86282;SDS011;76946;53.906;27.480;2024-03-29T02:55:07;10.4;;;6.2;;
86282;SDS011;76946;53.906;27.480;2024-03-29T02:56:07;9.9;;;5.9;;
86282;SDS011;76946;53.906;27.480;2024-03-29T02:57:08;10.2;;;6.1;;
86282;SDS011;76946;53.906;27.480;2024-03-29T02:58:08;10.4;;;6;;
86282;SDS011;76946;53.906;27.480;2024-03-29T02:59:08;10.6;;;6;;
86282;SDS011;76946;53.906;27.480;2024-03-29T03:00:09;11.1;;;6.2;;
86282;SDS011;76946;53.906;27.480;2024-03-29T03:01:09;11;;;6.1;;
86282;SDS011;76946;53.906;27.480;2024-03-29T03:02:10;10.7;;;5.9;;
86282;SDS011;76946;53.906;27.480;2024-03-29T03:03:10;10.9;;;6.1;;
86282;SDS011;76946;53.906;27.480;2024-03-29T03:04:10;10.4;;;6.1;;
86282;SDS011;76946;53.906;27.480;2024-03-29T03:05:10;12.7;;;6.3;;
86282;SDS011;76946;53.906;27.480;2024-03-29T03:06:11;12.4;;;6.4;;
86282;SDS011;76946;53.906;27.480;2024-03-29T03:07:11;11.8;;;6.7;;
86282;SDS011;76946;53.906;27.480;2024-03-29T03:08:11;11.2;;;6.8;;
86282;SDS011;76946;53.906;27.480;2024-03-29T03:09:12;12.5;;;7.3;;
86282;SDS011;76946;53.906;27.480;2024-03-29T03:10:12;11.9;;;7.1;;
86282;SDS011;76946;53.906;27.480;2024-03-29T03:11:12;12.1;;;7.1;;
86282;SDS011;76946;53.906;27.480;2024-03-29T03:12:13;11.5;;;6.9;;
86282;SDS011;76946;53.906;27.480;2024-03-29T03:13:13;11.8;;;7.1;;
86282;SDS011;76946;53.906;27.480;2024-03-29T03:14:14;12.3;;;7.1;;
86282;SDS011;76946;53.906;27.480;2024-03-29T03:15:14;12.1;;;6.7;;
86282;SDS011;76946;53.906;27.480;2024-03-29T03:16:14;11.5;;;6.8;;
86282;SDS011;76946;53.906;27.480;2024-03-29T03:17:15;11.7;;;7.2;;
86282;SDS011;76946;53.906;27.480;2024-03-29T03:18:15;11.7;;;7.4;;
86282;SDS011;76946;53.906;27.480;2024-03-29T03:19:15;11.3;;;7;;
86282;SDS011;76946;53.906;27.480;2024-03-29T03:20:16;11.3;;;7;;
86282;SDS011;76946;53.906;27.480;2024-03-29T03:21:16;11.2;;;7.1;;
86282;SDS011;76946;53.906;27.480;2024-03-29T03:22:16;11.4;;;6.9;;
86282;SDS011;76946;53.906;27.480;2024-03-29T03:23:17;11.9;;;7;;
86282;SDS011;76946;53.906;27.480;2024-03-29T03:24:17;11.5;;;7.1;;
86282;SDS011;76946;53.906;27.480;2024-03-29T03:25:17;11.1;;;7;;
86282;SDS011;76946;53.906;27.480;2024-03-29T03:26:18;11;;;7.3;;
86282;SDS011;76946;53.906;27.480;2024-03-29T03:27:18;11;;;7.2;;
86282;SDS011;76946;53.906;27.480;2024-03-29T03:28:18;10.8;;;7.2;;
86282;SDS011;76946;53.906;27.480;2024-03-29T03:29:19;10.3;;;7.5;;
86282;SDS011;76946;53.906;27.480;2024-03-29T03:30:19;11;;;7.5;;
86282;SDS011;76946;53.906;27.480;2024-03-29T03:31:19;11.2;;;7.4;;
86282;SDS011;76946;53.906;27.480;2024-03-29T03:32:20;10.9;;;7.3;;
86282;SDS011;76946;53.906;27.480;2024-03-29T03:33:20;11;;;7.5;;
86282;SDS011;76946;53.906;27.480;2024-03-29T03:34:21;10.8;;;7.3;;
86282;SDS011;76946;53.906;27.480;2024-03-29T03:35:21;11.6;;;7.3;;
86282;SDS011;76946;53.906;27.480;2024-03-29T03:36:21;11.2;;;7.5;;
86282;SDS011;76946;53.906;27.480;2024-03-29T03:37:22;10.8;;;7.4;;
86282;SDS011;76946;53.906;27.480;2024-03-29T03:38:22;11.7;;;7.6;;
86282;SDS011;76946;53.906;27.480;2024-03-29T03:39:22;12;;;7.8;;
86282;SDS011;76946;53.906;27.480;2024-03-29T03:40:23;13.5;;;8.3;;
86282;SDS011;76946;53.906;27.480;2024-03-29T03:41:23;14.8;;;9;;
86282;SDS011;76946;53.906;27.480;2024-03-29T03:42:23;16;;;10;;
86282;SDS011;76946;53.906;27.480;2024-03-29T03:43:24;17.9;;;10.8;;
86282;SDS011;76946;53.906;27.480;2024-03-29T03:44:24;17.7;;;10.9;;
86282;SDS011;76946;53.906;27.480;2024-03-29T03:45:24;18.9;;;11.4;;
86282;SDS011;76946;53.906;27.480;2024-03-29T03:46:25;18.4;;;11.3;;
86282;SDS011;76946;53.906;27.480;2024-03-29T03:47:25;18.2;;;10.9;;
86282;SDS011;76946;53.906;27.480;2024-03-29T03:48:26;17.6;;;10.7;;
86282;SDS011;76946;53.906;27.480;2024-03-29T03:49:26;17.8;;;10.6;;
86282;SDS011;76946;53.906;27.480;2024-03-29T03:50:26;16.9;;;10.2;;
86282;SDS011;76946;53.906;27.480;2024-03-29T03:51:27;16.4;;;10;;
86282;SDS011;76946;53.906;27.480;2024-03-29T03:52:27;16.8;;;9.9;;
86282;SDS011;76946;53.906;27.480;2024-03-29T03:53:27;16.1;;;9.8;;
86282;SDS011;76946;53.906;27.480;2024-03-29T03:54:28;17.4;;;10.4;;
86282;SDS011;76946;53.906;27.480;2024-03-29T03:55:28;17.5;;;10.7;;
86282;SDS011;76946;53.906;27.480;2024-03-29T03:56:28;16.6;;;10.6;;
86282;SDS011;76946;53.906;27.480;2024-03-29T03:57:29;15.8;;;10.1;;
86282;SDS011;76946;53.906;27.480;2024-03-29T03:58:29;16.3;;;9.9;;
86282;SDS011;76946;53.906;27.480;2024-03-29T03:59:29;15.5;;;9.4;;
86282;SDS011;76946;53.906;27.480;2024-03-29T04:00:30;14.7;;;8.9;;
86282;SDS011;76946;53.906;27.480;2024-03-29T04:01:30;14;;;8.5;;
86282;SDS011;76946;53.906;27.480;2024-03-29T04:02:30;13.3;;;8.5;;
86282;SDS011;76946;53.906;27.480;2024-03-29T04:03:31;13.1;;;8.4;;
86282;SDS011;76946;53.906;27.480;2024-03-29T04:04:31;12.5;;;8.2;;
86282;SDS011;76946;53.906;27.480;2024-03-29T04:05:31;12.9;;;8.1;;
86282;SDS011;76946;53.906;27.480;2024-03-29T04:06:32;13.2;;;8.5;;
86282;SDS011;76946;53.906;27.480;2024-03-29T04:07:32;12.9;;;8.2;;
86282;SDS011;76946;53.906;27.480;2024-03-29T04:08:33;13.2;;;8.6;;
86282;SDS011;76946;53.906;27.480;2024-03-29T04:09:33;12.6;;;8.5;;
86282;SDS011;76946;53.906;27.480;2024-03-29T04:10:37;12.8;;;8.6;;
86282;SDS011;76946;53.906;27.480;2024-03-29T04:11:34;15.2;;;9;;
86282;SDS011;76946;53.906;27.480;2024-03-29T04:12:34;15.3;;;8.8;;
86282;SDS011;76946;53.906;27.480;2024-03-29T04:13:34;14.5;;;8.7;;
86282;SDS011;76946;53.906;27.480;2024-03-29T04:14:35;14.6;;;8.3;;
86282;SDS011;76946;53.906;27.480;2024-03-29T04:15:35;13.9;;;8.6;;
86282;SDS011;76946;53.906;27.480;2024-03-29T04:16:35;13.2;;;8.2;;
86282;SDS011;76946;53.906;27.480;2024-03-29T04:17:36;13.2;;;8.3;;
86282;SDS011;76946;53.906;27.480;2024-03-29T04:18:36;14.1;;;8.2;;
86282;SDS011;76946;53.906;27.480;2024-03-29T04:19:36;13.7;;;8.3;;
86282;SDS011;76946;53.906;27.480;2024-03-29T04:20:37;13;;;8.4;;
86282;SDS011;76946;53.906;27.480;2024-03-29T04:21:37;12.6;;;8.4;;
86282;SDS011;76946;53.906;27.480;2024-03-29T04:22:37;12.6;;;8.5;;
86282;SDS011;76946;53.906;27.480;2024-03-29T04:23:38;12.1;;;8.2;;
86282;SDS011;76946;53.906;27.480;2024-03-29T04:24:38;12;;;7.9;;
86282;SDS011;76946;53.906;27.480;2024-03-29T04:25:38;12.1;;;8;;
86282;SDS011;76946;53.906;27.480;2024-03-29T04:26:39;11.8;;;7.8;;
86282;SDS011;76946;53.906;27.480;2024-03-29T04:27:39;12.1;;;8.1;;
86282;SDS011;76946;53.906;27.480;2024-03-29T04:28:40;11.9;;;8;;
86282;SDS011;76946;53.906;27.480;2024-03-29T04:29:40;11.3;;;7.6;;
86282;SDS011;76946;53.906;27.480;2024-03-29T04:30:40;11.4;;;7.7;;
86282;SDS011;76946;53.906;27.480;2024-03-29T04:31:41;10.8;;;7.6;;
86282;SDS011;76946;53.906;27.480;2024-03-29T04:32:41;10.8;;;7.5;;
86282;SDS011;76946;53.906;27.480;2024-03-29T04:33:41;11.7;;;7.7;;
86282;SDS011;76946;53.906;27.480;2024-03-29T04:34:42;12.1;;;7.9;;
86282;SDS011;76946;53.906;27.480;2024-03-29T04:35:49;12.3;;;8.1;;
86282;SDS011;76946;53.906;27.480;2024-03-29T04:36:42;12.3;;;8.1;;
86282;SDS011;76946;53.906;27.480;2024-03-29T04:37:43;11.7;;;7.9;;
86282;SDS011;76946;53.906;27.480;2024-03-29T04:38:43;12.3;;;8.1;;
86282;SDS011;76946;53.906;27.480;2024-03-29T04:39:43;11.7;;;7.8;;
86282;SDS011;76946;53.906;27.480;2024-03-29T04:40:44;11.5;;;7.6;;
86282;SDS011;76946;53.906;27.480;2024-03-29T04:41:44;12.3;;;7.4;;
86282;SDS011;76946;53.906;27.480;2024-03-29T04:42:44;11.7;;;7.7;;
86282;SDS011;76946;53.906;27.480;2024-03-29T04:43:45;11.1;;;7.9;;
86282;SDS011;76946;53.906;27.480;2024-03-29T04:44:45;12.3;;;7.9;;
86282;SDS011;76946;53.906;27.480;2024-03-29T04:45:45;11.8;;;7.9;;
86282;SDS011;76946;53.906;27.480;2024-03-29T04:46:46;11.4;;;7.8;;
86282;SDS011;76946;53.906;27.480;2024-03-29T04:47:46;11.9;;;7.9;;
86282;SDS011;76946;53.906;27.480;2024-03-29T04:48:47;11.3;;;8.1;;
86282;SDS011;76946;53.906;27.480;2024-03-29T04:49:47;11.4;;;8.1;;
86282;SDS011;76946;53.906;27.480;2024-03-29T04:50:47;11.3;;;7.7;;
86282;SDS011;76946;53.906;27.480;2024-03-29T04:51:48;11.6;;;8;;
86282;SDS011;76946;53.906;27.480;2024-03-29T04:52:48;11.6;;;7.9;;
86282;SDS011;76946;53.906;27.480;2024-03-29T04:53:48;11.7;;;8;;
86282;SDS011;76946;53.906;27.480;2024-03-29T04:54:49;11.1;;;7.8;;
86282;SDS011;76946;53.906;27.480;2024-03-29T04:55:52;11.8;;;7.9;;
86282;SDS011;76946;53.906;27.480;2024-03-29T04:56:49;12;;;8;;
86282;SDS011;76946;53.906;27.480;2024-03-29T04:57:50;12.8;;;8.6;;
86282;SDS011;76946;53.906;27.480;2024-03-29T04:58:50;12.2;;;8.2;;
86282;SDS011;76946;53.906;27.480;2024-03-29T04:59:50;13.3;;;8.4;;
86282;SDS011;76946;53.906;27.480;2024-03-29T05:00:51;13;;;8.3;;
86282;SDS011;76946;53.906;27.480;2024-03-29T05:01:51;12.5;;;8.1;;
86282;SDS011;76946;53.906;27.480;2024-03-29T05:02:51;11.9;;;7.9;;
86282;SDS011;76946;53.906;27.480;2024-03-29T05:03:52;12.5;;;8.1;;
86282;SDS011;76946;53.906;27.480;2024-03-29T05:04:52;12.3;;;8.2;;
86282;SDS011;76946;53.906;27.480;2024-03-29T05:05:53;13;;;8.4;;
86282;SDS011;76946;53.906;27.480;2024-03-29T05:06:53;12.7;;;8.3;;
86282;SDS011;76946;53.906;27.480;2024-03-29T05:07:53;12.4;;;8.6;;
86282;SDS011;76946;53.906;27.480;2024-03-29T05:08:53;11.9;;;8.5;;
86282;SDS011;76946;53.906;27.480;2024-03-29T05:09:54;11.3;;;8.1;;
86282;SDS011;76946;53.906;27.480;2024-03-29T05:10:54;11.7;;;8.1;;
86282;SDS011;76946;53.906;27.480;2024-03-29T05:11:55;11.7;;;8;;
86282;SDS011;76946;53.906;27.480;2024-03-29T05:12:55;12.8;;;8.4;;
86282;SDS011;76946;53.906;27.480;2024-03-29T05:13:55;12.4;;;8.5;;
86282;SDS011;76946;53.906;27.480;2024-03-29T05:14:56;11.8;;;8.4;;
86282;SDS011;76946;53.906;27.480;2024-03-29T05:15:56;11.6;;;8.5;;
86282;SDS011;76946;53.906;27.480;2024-03-29T05:16:56;12;;;8.3;;
86282;SDS011;76946;53.906;27.480;2024-03-29T05:17:57;12.4;;;8.4;;
86282;SDS011;76946;53.906;27.480;2024-03-29T05:18:57;12.3;;;8.4;;
86282;SDS011;76946;53.906;27.480;2024-03-29T05:19:57;13.4;;;8.7;;
86282;SDS011;76946;53.906;27.480;2024-03-29T05:20:58;13.4;;;8.5;;
86282;SDS011;76946;53.906;27.480;2024-03-29T05:21:58;14;;;8.7;;
86282;SDS011;76946;53.906;27.480;2024-03-29T05:22:58;13.6;;;8.5;;
86282;SDS011;76946;53.906;27.480;2024-03-29T05:23:59;13.9;;;8.6;;
86282;SDS011;76946;53.906;27.480;2024-03-29T05:24:59;13.2;;;8.4;;
86282;SDS011;76946;53.906;27.480;2024-03-29T05:25:59;12.6;;;8.4;;
86282;SDS011;76946;53.906;27.480;2024-03-29T05:27:00;12.5;;;8.3;;
86282;SDS011;76946;53.906;27.480;2024-03-29T05:28:00;12.7;;;8.4;;
86282;SDS011;76946;53.906;27.480;2024-03-29T05:29:01;12.6;;;8.6;;
86282;SDS011;76946;53.906;27.480;2024-03-29T05:30:01;12.6;;;8.5;;
86282;SDS011;76946;53.906;27.480;2024-03-29T05:31:11;12;;;8.3;;
86282;SDS011;76946;53.906;27.480;2024-03-29T05:32:02;11.7;;;8.6;;
86282;SDS011;76946;53.906;27.480;2024-03-29T05:33:02;12.7;;;8.6;;
86282;SDS011;76946;53.906;27.480;2024-03-29T05:34:02;12.6;;;8.4;;
86282;SDS011;76946;53.906;27.480;2024-03-29T05:35:03;12.4;;;8.1;;
86282;SDS011;76946;53.906;27.480;2024-03-29T05:36:03;13.4;;;8.3;;
86282;SDS011;76946;53.906;27.480;2024-03-29T05:37:03;13.3;;;8.6;;
86282;SDS011;76946;53.906;27.480;2024-03-29T05:38:04;14.3;;;8.8;;
86282;SDS011;76946;53.906;27.480;2024-03-29T05:39:04;14;;;8.6;;
86282;SDS011;76946;53.906;27.480;2024-03-29T05:40:05;13.5;;;9.1;;
86282;SDS011;76946;53.906;27.480;2024-03-29T05:41:05;12.8;;;8.6;;
86282;SDS011;76946;53.906;27.480;2024-03-29T05:42:05;12.8;;;8.8;;
86282;SDS011;76946;53.906;27.480;2024-03-29T05:43:05;14.4;;;9.1;;
86282;SDS011;76946;53.906;27.480;2024-03-29T05:44:06;13.7;;;9.1;;
86282;SDS011;76946;53.906;27.480;2024-03-29T05:45:20;14;;;9.1;;
86282;SDS011;76946;53.906;27.480;2024-03-29T05:46:06;13.3;;;8.7;;
86282;SDS011;76946;53.906;27.480;2024-03-29T05:47:07;12.9;;;8.9;;
86282;SDS011;76946;53.906;27.480;2024-03-29T05:48:07;12.8;;;9.1;;
86282;SDS011;76946;53.906;27.480;2024-03-29T05:49:07;12.8;;;9.5;;
86282;SDS011;76946;53.906;27.480;2024-03-29T05:50:08;12.8;;;9.2;;
86282;SDS011;76946;53.906;27.480;2024-03-29T05:51:08;13;;;9.4;;
86282;SDS011;76946;53.906;27.480;2024-03-29T05:52:09;12.9;;;9.1;;
86282;SDS011;76946;53.906;27.480;2024-03-29T05:53:09;13.6;;;9.1;;
86282;SDS011;76946;53.906;27.480;2024-03-29T05:54:09;13.8;;;9.1;;
86282;SDS011;76946;53.906;27.480;2024-03-29T05:55:10;14.3;;;9.1;;
86282;SDS011;76946;53.906;27.480;2024-03-29T05:56:10;13.6;;;9.3;;
86282;SDS011;76946;53.906;27.480;2024-03-29T05:57:10;13.1;;;9.1;;
86282;SDS011;76946;53.906;27.480;2024-03-29T05:58:11;13.4;;;9.1;;
86282;SDS011;76946;53.906;27.480;2024-03-29T05:59:11;13.3;;;9.1;;
86282;SDS011;76946;53.906;27.480;2024-03-29T06:00:12;12.7;;;9;;
86282;SDS011;76946;53.906;27.480;2024-03-29T06:01:12;13.1;;;8.9;;
86282;SDS011;76946;53.906;27.480;2024-03-29T06:02:12;13.3;;;8.8;;
86282;SDS011;76946;53.906;27.480;2024-03-29T06:03:12;13;;;8.9;;
86282;SDS011;76946;53.906;27.480;2024-03-29T06:04:13;12.7;;;9.1;;
86282;SDS011;76946;53.906;27.480;2024-03-29T06:05:13;12.1;;;8.9;;
86282;SDS011;76946;53.906;27.480;2024-03-29T06:06:13;13.1;;;9;;
86282;SDS011;76946;53.906;27.480;2024-03-29T06:07:14;12.7;;;8.8;;
86282;SDS011;76946;53.906;27.480;2024-03-29T06:08:14;12.8;;;8.8;;